sensor_id;sensor_type;location;lat;lon;timestamp;P1;durP1;ratioP1;P2;durP2;ratioP2
83694;SDS011;73676;43.582;22.268;2024-01-10T00:02:04;7.93;;;5.67;;
83694;SDS011;73676;43.582;22.268;2024-01-10T00:04:29;5.33;;;4.60;;
83694;SDS011;73676;43.582;22.268;2024-01-10T00:06:54;8.70;;;5.77;;
83694;SDS011;73676;43.582;22.268;2024-01-10T00:09:19;7.73;;;5.90;;
83694;SDS011;73676;43.582;22.268;2024-01-10T00:11:45;9.10;;;5.63;;
83694;SDS011;73676;43.582;22.268;2024-01-10T00:14:10;7.10;;;5.43;;
83694;SDS011;73676;43.582;22.268;2024-01-10T00:16:35;9.17;;;5.53;;
83694;SDS011;73676;43.582;22.268;2024-01-10T00:19:01;7.03;;;5.37;;
83694;SDS011;73676;43.582;22.268;2024-01-10T00:21:26;7.87;;;5.50;;
83694;SDS011;73676;43.582;22.268;2024-01-10T00:23:53;7.73;;;4.43;;
83694;SDS011;73676;43.582;22.268;2024-01-10T00:26:19;8.50;;;6.20;;
83694;SDS011;73676;43.582;22.268;2024-01-10T00:28:44;10.17;;;6.50;;
83694;SDS011;73676;43.582;22.268;2024-01-10T00:31:11;10.33;;;5.13;;
83694;SDS011;73676;43.582;22.268;2024-01-10T00:33:36;11.20;;;6.17;;
83694;SDS011;73676;43.582;22.268;2024-01-10T00:36:02;8.33;;;6.20;;
83694;SDS011;73676;43.582;22.268;2024-01-10T00:38:27;10.50;;;5.80;;
83694;SDS011;73676;43.582;22.268;2024-01-10T00:40:52;5.73;;;4.50;;
83694;SDS011;73676;43.582;22.268;2024-01-10T00:43:17;7.10;;;5.20;;
83694;SDS011;73676;43.582;22.268;2024-01-10T00:45:43;8.13;;;5.43;;
83694;SDS011;73676;43.582;22.268;2024-01-10T00:48:08;7.47;;;5.17;;
83694;SDS011;73676;43.582;22.268;2024-01-10T00:50:33;6.63;;;4.80;;
83694;SDS011;73676;43.582;22.268;2024-01-10T00:52:59;8.47;;;6.00;;
83694;SDS011;73676;43.582;22.268;2024-01-10T00:55:24;7.03;;;5.33;;
83694;SDS011;73676;43.582;22.268;2024-01-10T00:57:49;6.50;;;4.50;;
83694;SDS011;73676;43.582;22.268;2024-01-10T01:00:15;4.67;;;3.90;;
83694;SDS011;73676;43.582;22.268;2024-01-10T01:02:40;7.63;;;5.63;;
83694;SDS011;73676;43.582;22.268;2024-01-10T01:05:06;7.50;;;5.47;;
83694;SDS011;73676;43.582;22.268;2024-01-10T01:07:34;6.55;;;5.07;;
83694;SDS011;73676;43.582;22.268;2024-01-10T01:10:00;11.40;;;6.63;;
83694;SDS011;73676;43.582;22.268;2024-01-10T01:12:25;6.50;;;5.40;;
83694;SDS011;73676;43.582;22.268;2024-01-10T01:14:50;7.40;;;5.43;;
83694;SDS011;73676;43.582;22.268;2024-01-10T01:17:16;12.10;;;6.83;;
83694;SDS011;73676;43.582;22.268;2024-01-10T01:19:41;8.60;;;6.10;;
83694;SDS011;73676;43.582;22.268;2024-01-10T01:22:06;7.77;;;5.47;;
83694;SDS011;73676;43.582;22.268;2024-01-10T01:24:32;9.13;;;6.67;;
83694;SDS011;73676;43.582;22.268;2024-01-10T01:26:57;9.37;;;5.97;;
83694;SDS011;73676;43.582;22.268;2024-01-10T01:29:22;8.70;;;5.57;;
83694;SDS011;73676;43.582;22.268;2024-01-10T01:31:48;7.83;;;6.60;;
83694;SDS011;73676;43.582;22.268;2024-01-10T01:34:13;12.93;;;7.00;;
83694;SDS011;73676;43.582;22.268;2024-01-10T01:36:38;8.23;;;5.67;;
83694;SDS011;73676;43.582;22.268;2024-01-10T01:39:04;9.63;;;6.07;;
83694;SDS011;73676;43.582;22.268;2024-01-10T01:41:29;9.93;;;6.30;;
83694;SDS011;73676;43.582;22.268;2024-01-10T01:43:54;9.03;;;6.07;;
83694;SDS011;73676;43.582;22.268;2024-01-10T01:46:20;9.57;;;5.83;;
83694;SDS011;73676;43.582;22.268;2024-01-10T01:48:45;10.30;;;7.10;;
83694;SDS011;73676;43.582;22.268;2024-01-10T01:51:12;9.33;;;6.27;;
83694;SDS011;73676;43.582;22.268;2024-01-10T01:53:37;9.47;;;5.90;;
83694;SDS011;73676;43.582;22.268;2024-01-10T01:56:07;14.37;;;7.47;;
83694;SDS011;73676;43.582;22.268;2024-01-10T01:58:32;13.00;;;7.70;;
83694;SDS011;73676;43.582;22.268;2024-01-10T02:00:58;9.70;;;6.37;;
83694;SDS011;73676;43.582;22.268;2024-01-10T02:03:24;7.67;;;6.13;;
83694;SDS011;73676;43.582;22.268;2024-01-10T02:05:51;10.33;;;6.40;;
83694;SDS011;73676;43.582;22.268;2024-01-10T02:08:17;16.00;;;9.07;;
83694;SDS011;73676;43.582;22.268;2024-01-10T02:10:42;11.10;;;7.40;;
83694;SDS011;73676;43.582;22.268;2024-01-10T02:13:07;7.70;;;5.50;;
83694;SDS011;73676;43.582;22.268;2024-01-10T02:15:34;9.67;;;7.43;;
83694;SDS011;73676;43.582;22.268;2024-01-10T02:17:59;17.67;;;9.63;;
83694;SDS011;73676;43.582;22.268;2024-01-10T02:20:25;17.33;;;8.93;;
83694;SDS011;73676;43.582;22.268;2024-01-10T02:22:50;14.27;;;7.67;;
83694;SDS011;73676;43.582;22.268;2024-01-10T02:25:16;20.07;;;10.27;;
83694;SDS011;73676;43.582;22.268;2024-01-10T02:27:41;19.73;;;10.27;;
83694;SDS011;73676;43.582;22.268;2024-01-10T02:30:07;13.47;;;8.37;;
83694;SDS011;73676;43.582;22.268;2024-01-10T02:32:33;11.10;;;6.57;;
83694;SDS011;73676;43.582;22.268;2024-01-10T02:34:58;9.90;;;6.37;;
83694;SDS011;73676;43.582;22.268;2024-01-10T02:37:24;9.77;;;6.47;;
83694;SDS011;73676;43.582;22.268;2024-01-10T02:39:50;11.40;;;7.10;;
83694;SDS011;73676;43.582;22.268;2024-01-10T02:42:15;15.37;;;9.33;;
83694;SDS011;73676;43.582;22.268;2024-01-10T02:44:40;14.90;;;9.20;;
83694;SDS011;73676;43.582;22.268;2024-01-10T02:47:06;11.80;;;8.57;;
83694;SDS011;73676;43.582;22.268;2024-01-10T02:49:32;16.43;;;9.97;;
83694;SDS011;73676;43.582;22.268;2024-01-10T02:51:59;16.30;;;9.43;;
83694;SDS011;73676;43.582;22.268;2024-01-10T02:54:24;19.17;;;9.47;;
83694;SDS011;73676;43.582;22.268;2024-01-10T02:56:50;19.33;;;10.57;;
83694;SDS011;73676;43.582;22.268;2024-01-10T02:59:15;15.40;;;9.27;;
83694;SDS011;73676;43.582;22.268;2024-01-10T03:01:40;13.83;;;9.20;;
83694;SDS011;73676;43.582;22.268;2024-01-10T03:04:05;15.93;;;10.33;;
83694;SDS011;73676;43.582;22.268;2024-01-10T03:06:31;23.07;;;12.17;;
83694;SDS011;73676;43.582;22.268;2024-01-10T03:08:57;23.23;;;12.30;;
83694;SDS011;73676;43.582;22.268;2024-01-10T03:11:23;20.03;;;11.80;;
83694;SDS011;73676;43.582;22.268;2024-01-10T03:14:00;19.60;;;12.77;;
83694;SDS011;73676;43.582;22.268;2024-01-10T03:16:26;18.90;;;12.23;;
83694;SDS011;73676;43.582;22.268;2024-01-10T03:18:51;21.50;;;14.10;;
83694;SDS011;73676;43.582;22.268;2024-01-10T03:21:17;18.27;;;12.10;;
83694;SDS011;73676;43.582;22.268;2024-01-10T03:23:47;20.97;;;13.23;;
83694;SDS011;73676;43.582;22.268;2024-01-10T03:26:13;23.13;;;12.00;;
83694;SDS011;73676;43.582;22.268;2024-01-10T03:28:38;20.23;;;12.67;;
83694;SDS011;73676;43.582;22.268;2024-01-10T03:31:03;22.43;;;11.90;;
83694;SDS011;73676;43.582;22.268;2024-01-10T03:33:29;23.77;;;12.93;;
83694;SDS011;73676;43.582;22.268;2024-01-10T03:35:54;24.37;;;13.93;;
83694;SDS011;73676;43.582;22.268;2024-01-10T03:38:19;27.17;;;13.90;;
83694;SDS011;73676;43.582;22.268;2024-01-10T03:40:44;27.37;;;12.93;;
83694;SDS011;73676;43.582;22.268;2024-01-10T03:43:10;25.20;;;13.77;;
83694;SDS011;73676;43.582;22.268;2024-01-10T03:45:37;25.70;;;13.30;;
83694;SDS011;73676;43.582;22.268;2024-01-10T03:48:02;28.87;;;13.80;;
83694;SDS011;73676;43.582;22.268;2024-01-10T03:50:27;29.07;;;14.07;;
83694;SDS011;73676;43.582;22.268;2024-01-10T03:52:53;24.80;;;12.43;;
83694;SDS011;73676;43.582;22.268;2024-01-10T03:55:18;28.77;;;13.80;;
83694;SDS011;73676;43.582;22.268;2024-01-10T03:57:43;27.87;;;13.80;;
83694;SDS011;73676;43.582;22.268;2024-01-10T04:00:09;32.60;;;16.47;;
83694;SDS011;73676;43.582;22.268;2024-01-10T04:02:36;28.93;;;15.83;;
83694;SDS011;73676;43.582;22.268;2024-01-10T04:05:01;21.30;;;12.07;;
83694;SDS011;73676;43.582;22.268;2024-01-10T04:07:27;29.03;;;16.43;;
83694;SDS011;73676;43.582;22.268;2024-01-10T04:09:52;23.70;;;13.83;;
83694;SDS011;73676;43.582;22.268;2024-01-10T04:12:17;25.33;;;14.03;;
83694;SDS011;73676;43.582;22.268;2024-01-10T04:14:42;24.13;;;15.27;;
83694;SDS011;73676;43.582;22.268;2024-01-10T04:17:08;27.57;;;15.10;;
83694;SDS011;73676;43.582;22.268;2024-01-10T04:19:34;32.47;;;17.53;;
83694;SDS011;73676;43.582;22.268;2024-01-10T04:21:59;22.50;;;13.90;;
83694;SDS011;73676;43.582;22.268;2024-01-10T04:24:24;24.77;;;14.20;;
83694;SDS011;73676;43.582;22.268;2024-01-10T04:26:50;19.50;;;13.23;;
83694;SDS011;73676;43.582;22.268;2024-01-10T04:29:15;19.83;;;12.10;;
83694;SDS011;73676;43.582;22.268;2024-01-10T04:31:40;23.50;;;12.17;;
83694;SDS011;73676;43.582;22.268;2024-01-10T04:34:06;21.77;;;11.80;;
83694;SDS011;73676;43.582;22.268;2024-01-10T04:36:33;17.13;;;10.70;;
83694;SDS011;73676;43.582;22.268;2024-01-10T04:38:58;19.77;;;11.17;;
83694;SDS011;73676;43.582;22.268;2024-01-10T04:41:24;19.57;;;11.10;;
83694;SDS011;73676;43.582;22.268;2024-01-10T04:43:49;24.73;;;10.23;;
83694;SDS011;73676;43.582;22.268;2024-01-10T04:46:14;20.70;;;10.50;;
83694;SDS011;73676;43.582;22.268;2024-01-10T04:48:40;15.97;;;9.80;;
83694;SDS011;73676;43.582;22.268;2024-01-10T04:51:05;18.73;;;10.23;;
83694;SDS011;73676;43.582;22.268;2024-01-10T04:53:30;15.97;;;10.97;;
83694;SDS011;73676;43.582;22.268;2024-01-10T04:55:55;21.90;;;12.53;;
83694;SDS011;73676;43.582;22.268;2024-01-10T04:58:21;26.47;;;14.23;;
83694;SDS011;73676;43.582;22.268;2024-01-10T05:00:46;38.67;;;20.70;;
83694;SDS011;73676;43.582;22.268;2024-01-10T05:03:12;20.47;;;13.47;;
83694;SDS011;73676;43.582;22.268;2024-01-10T05:05:37;26.37;;;15.13;;
83694;SDS011;73676;43.582;22.268;2024-01-10T05:08:03;24.73;;;15.63;;
83694;SDS011;73676;43.582;22.268;2024-01-10T05:10:28;26.63;;;15.73;;
83694;SDS011;73676;43.582;22.268;2024-01-10T05:12:53;32.83;;;18.83;;
83694;SDS011;73676;43.582;22.268;2024-01-10T05:15:19;57.20;;;27.93;;
83694;SDS011;73676;43.582;22.268;2024-01-10T05:17:44;30.17;;;16.97;;
83694;SDS011;73676;43.582;22.268;2024-01-10T05:20:09;30.03;;;16.50;;
83694;SDS011;73676;43.582;22.268;2024-01-10T05:22:35;33.70;;;17.23;;
83694;SDS011;73676;43.582;22.268;2024-01-10T05:25:00;32.13;;;16.57;;
83694;SDS011;73676;43.582;22.268;2024-01-10T05:27:26;33.40;;;16.50;;
83694;SDS011;73676;43.582;22.268;2024-01-10T05:29:51;29.83;;;15.50;;
83694;SDS011;73676;43.582;22.268;2024-01-10T05:32:18;30.20;;;15.97;;
83694;SDS011;73676;43.582;22.268;2024-01-10T05:34:44;36.77;;;19.43;;
83694;SDS011;73676;43.582;22.268;2024-01-10T05:37:09;43.57;;;24.03;;
83694;SDS011;73676;43.582;22.268;2024-01-10T05:39:35;47.17;;;26.37;;
83694;SDS011;73676;43.582;22.268;2024-01-10T05:42:00;68.37;;;33.83;;
83694;SDS011;73676;43.582;22.268;2024-01-10T05:44:27;64.00;;;28.40;;
83694;SDS011;73676;43.582;22.268;2024-01-10T05:46:52;66.63;;;32.00;;
83694;SDS011;73676;43.582;22.268;2024-01-10T05:49:18;49.53;;;25.27;;
83694;SDS011;73676;43.582;22.268;2024-01-10T05:51:43;36.67;;;21.27;;
83694;SDS011;73676;43.582;22.268;2024-01-10T05:54:08;37.87;;;21.17;;
83694;SDS011;73676;43.582;22.268;2024-01-10T05:56:33;78.33;;;36.23;;
83694;SDS011;73676;43.582;22.268;2024-01-10T05:59:00;90.13;;;41.23;;
83694;SDS011;73676;43.582;22.268;2024-01-10T06:01:26;88.13;;;36.90;;
83694;SDS011;73676;43.582;22.268;2024-01-10T06:03:51;105.23;;;46.47;;
83694;SDS011;73676;43.582;22.268;2024-01-10T06:06:17;94.87;;;43.80;;
83694;SDS011;73676;43.582;22.268;2024-01-10T06:08:42;183.57;;;94.20;;
83694;SDS011;73676;43.582;22.268;2024-01-10T06:11:07;125.30;;;60.17;;
83694;SDS011;73676;43.582;22.268;2024-01-10T06:13:34;110.27;;;50.00;;
83694;SDS011;73676;43.582;22.268;2024-01-10T06:16:00;94.83;;;45.03;;
83694;SDS011;73676;43.582;22.268;2024-01-10T06:18:27;232.37;;;107.40;;
83694;SDS011;73676;43.582;22.268;2024-01-10T06:20:52;191.10;;;100.10;;
83694;SDS011;73676;43.582;22.268;2024-01-10T06:23:18;182.47;;;93.40;;
83694;SDS011;73676;43.582;22.268;2024-01-10T06:25:43;131.30;;;62.23;;
83694;SDS011;73676;43.582;22.268;2024-01-10T06:28:08;401.20;;;156.17;;
83694;SDS011;73676;43.582;22.268;2024-01-10T06:30:34;302.47;;;118.47;;
83694;SDS011;73676;43.582;22.268;2024-01-10T06:33:00;301.00;;;114.40;;
83694;SDS011;73676;43.582;22.268;2024-01-10T06:35:26;351.80;;;138.03;;
83694;SDS011;73676;43.582;22.268;2024-01-10T06:37:51;284.63;;;122.43;;
83694;SDS011;73676;43.582;22.268;2024-01-10T06:40:16;246.03;;;98.40;;
83694;SDS011;73676;43.582;22.268;2024-01-10T06:42:42;220.83;;;91.30;;
83694;SDS011;73676;43.582;22.268;2024-01-10T06:45:07;241.47;;;92.53;;
83694;SDS011;73676;43.582;22.268;2024-01-10T06:47:33;288.00;;;111.77;;
83694;SDS011;73676;43.582;22.268;2024-01-10T06:49:59;728.80;;;315.03;;
83694;SDS011;73676;43.582;22.268;2024-01-10T06:52:24;409.50;;;172.20;;
83694;SDS011;73676;43.582;22.268;2024-01-10T06:54:49;136.50;;;64.17;;
83694;SDS011;73676;43.582;22.268;2024-01-10T06:57:15;163.97;;;70.13;;
83694;SDS011;73676;43.582;22.268;2024-01-10T06:59:40;201.03;;;84.97;;
83694;SDS011;73676;43.582;22.268;2024-01-10T07:02:05;185.73;;;83.90;;
83694;SDS011;73676;43.582;22.268;2024-01-10T07:04:31;166.23;;;77.17;;
83694;SDS011;73676;43.582;22.268;2024-01-10T07:06:57;133.37;;;63.73;;
83694;SDS011;73676;43.582;22.268;2024-01-10T07:09:22;185.67;;;85.37;;
83694;SDS011;73676;43.582;22.268;2024-01-10T07:11:48;192.67;;;88.37;;
83694;SDS011;73676;43.582;22.268;2024-01-10T07:14:14;182.90;;;82.13;;
83694;SDS011;73676;43.582;22.268;2024-01-10T07:16:39;125.23;;;64.23;;
83694;SDS011;73676;43.582;22.268;2024-01-10T07:19:07;56.93;;;31.27;;
83694;SDS011;73676;43.582;22.268;2024-01-10T07:21:32;65.23;;;35.37;;
83694;SDS011;73676;43.582;22.268;2024-01-10T07:23:58;105.87;;;51.13;;
83694;SDS011;73676;43.582;22.268;2024-01-10T07:26:24;137.33;;;72.20;;
83694;SDS011;73676;43.582;22.268;2024-01-10T07:28:50;40.27;;;23.33;;
83694;SDS011;73676;43.582;22.268;2024-01-10T07:31:15;33.60;;;19.67;;
83694;SDS011;73676;43.582;22.268;2024-01-10T07:33:41;37.47;;;21.23;;
83694;SDS011;73676;43.582;22.268;2024-01-10T07:36:06;34.17;;;20.93;;
83694;SDS011;73676;43.582;22.268;2024-01-10T07:38:32;181.93;;;77.63;;
83694;SDS011;73676;43.582;22.268;2024-01-10T07:40:57;209.30;;;93.77;;
83694;SDS011;73676;43.582;22.268;2024-01-10T07:43:24;241.77;;;87.77;;
83694;SDS011;73676;43.582;22.268;2024-01-10T07:45:49;238.07;;;96.13;;
83694;SDS011;73676;43.582;22.268;2024-01-10T07:48:14;196.27;;;88.07;;
83694;SDS011;73676;43.582;22.268;2024-01-10T07:50:40;160.03;;;76.90;;
83694;SDS011;73676;43.582;22.268;2024-01-10T07:53:05;189.83;;;98.90;;
83694;SDS011;73676;43.582;22.268;2024-01-10T07:55:30;155.23;;;75.20;;
83694;SDS011;73676;43.582;22.268;2024-01-10T07:57:55;186.07;;;96.93;;
83694;SDS011;73676;43.582;22.268;2024-01-10T08:00:21;183.87;;;94.33;;
83694;SDS011;73676;43.582;22.268;2024-01-10T08:02:47;233.73;;;111.00;;
83694;SDS011;73676;43.582;22.268;2024-01-10T08:05:14;211.50;;;102.37;;
83694;SDS011;73676;43.582;22.268;2024-01-10T08:07:40;497.97;;;281.80;;
83694;SDS011;73676;43.582;22.268;2024-01-10T08:10:05;308.17;;;143.77;;
83694;SDS011;73676;43.582;22.268;2024-01-10T08:12:31;265.17;;;135.07;;
83694;SDS011;73676;43.582;22.268;2024-01-10T08:14:56;558.13;;;233.03;;
83694;SDS011;73676;43.582;22.268;2024-01-10T08:17:22;348.23;;;136.77;;
83694;SDS011;73676;43.582;22.268;2024-01-10T08:19:48;516.97;;;182.97;;
83694;SDS011;73676;43.582;22.268;2024-01-10T08:22:14;188.33;;;89.13;;
83694;SDS011;73676;43.582;22.268;2024-01-10T08:24:40;72.13;;;39.13;;
83694;SDS011;73676;43.582;22.268;2024-01-10T08:27:05;88.37;;;43.03;;
83694;SDS011;73676;43.582;22.268;2024-01-10T08:29:30;28.70;;;18.90;;
83694;SDS011;73676;43.582;22.268;2024-01-10T08:31:57;25.17;;;15.27;;
83694;SDS011;73676;43.582;22.268;2024-01-10T08:34:23;39.50;;;23.55;;
83694;SDS011;73676;43.582;22.268;2024-01-10T08:36:49;24.73;;;16.83;;
83694;SDS011;73676;43.582;22.268;2024-01-10T08:39:16;24.08;;;15.32;;
83694;SDS011;73676;43.582;22.268;2024-01-10T08:41:41;29.20;;;17.83;;
83694;SDS011;73676;43.582;22.268;2024-01-10T08:44:09;29.33;;;17.25;;
83694;SDS011;73676;43.582;22.268;2024-01-10T08:46:34;25.13;;;13.52;;
83694;SDS011;73676;43.582;22.268;2024-01-10T08:49:00;27.13;;;17.88;;
83694;SDS011;73676;43.582;22.268;2024-01-10T08:51:25;29.67;;;21.90;;
83694;SDS011;73676;43.582;22.268;2024-01-10T08:53:50;22.98;;;17.70;;
83694;SDS011;73676;43.582;22.268;2024-01-10T08:56:15;17.60;;;13.35;;
83694;SDS011;73676;43.582;22.268;2024-01-10T08:58:41;26.85;;;19.45;;
83694;SDS011;73676;43.582;22.268;2024-01-10T09:01:07;17.80;;;12.55;;
83694;SDS011;73676;43.582;22.268;2024-01-10T09:03:33;13.10;;;10.77;;
83694;SDS011;73676;43.582;22.268;2024-01-10T09:05:59;15.95;;;11.63;;
83694;SDS011;73676;43.582;22.268;2024-01-10T09:08:24;13.18;;;10.63;;
83694;SDS011;73676;43.582;22.268;2024-01-10T09:10:49;17.45;;;11.60;;
83694;SDS011;73676;43.582;22.268;2024-01-10T09:13:16;16.08;;;12.20;;
83694;SDS011;73676;43.582;22.268;2024-01-10T09:15:42;31.83;;;20.70;;
83694;SDS011;73676;43.582;22.268;2024-01-10T09:18:08;24.75;;;17.63;;
83694;SDS011;73676;43.582;22.268;2024-01-10T09:20:34;18.58;;;12.75;;
83694;SDS011;73676;43.582;22.268;2024-01-10T09:22:59;17.90;;;14.32;;
83694;SDS011;73676;43.582;22.268;2024-01-10T09:25:27;16.75;;;12.75;;
83694;SDS011;73676;43.582;22.268;2024-01-10T09:27:53;15.27;;;11.27;;
83694;SDS011;73676;43.582;22.268;2024-01-10T09:30:19;11.55;;;9.52;;
83694;SDS011;73676;43.582;22.268;2024-01-10T09:32:44;14.50;;;10.98;;
83694;SDS011;73676;43.582;22.268;2024-01-10T09:35:10;15.85;;;12.27;;
83694;SDS011;73676;43.582;22.268;2024-01-10T09:37:35;12.43;;;9.40;;
83694;SDS011;73676;43.582;22.268;2024-01-10T09:40:01;15.48;;;11.82;;
83694;SDS011;73676;43.582;22.268;2024-01-10T09:42:26;14.63;;;11.02;;
83694;SDS011;73676;43.582;22.268;2024-01-10T09:44:51;11.63;;;10.30;;
83694;SDS011;73676;43.582;22.268;2024-01-10T09:47:17;15.75;;;13.88;;
83694;SDS011;73676;43.582;22.268;2024-01-10T09:49:44;11.40;;;9.80;;
83694;SDS011;73676;43.582;22.268;2024-01-10T09:52:11;13.00;;;10.32;;
83694;SDS011;73676;43.582;22.268;2024-01-10T09:54:40;10.25;;;8.52;;
83694;SDS011;73676;43.582;22.268;2024-01-10T09:57:06;12.32;;;9.55;;
83694;SDS011;73676;43.582;22.268;2024-01-10T09:59:31;11.52;;;10.23;;
83694;SDS011;73676;43.582;22.268;2024-01-10T10:01:57;13.25;;;10.65;;
83694;SDS011;73676;43.582;22.268;2024-01-10T10:04:25;11.80;;;9.93;;
83694;SDS011;73676;43.582;22.268;2024-01-10T10:07:00;11.90;;;10.38;;
83694;SDS011;73676;43.582;22.268;2024-01-10T10:09:28;15.18;;;12.00;;
83694;SDS011;73676;43.582;22.268;2024-01-10T10:11:55;12.80;;;11.23;;
83694;SDS011;73676;43.582;22.268;2024-01-10T10:14:20;11.65;;;10.18;;
83694;SDS011;73676;43.582;22.268;2024-01-10T10:16:47;11.02;;;9.77;;
83694;SDS011;73676;43.582;22.268;2024-01-10T10:19:20;11.15;;;9.93;;
83694;SDS011;73676;43.582;22.268;2024-01-10T10:21:48;10.82;;;9.68;;
83694;SDS011;73676;43.582;22.268;2024-01-10T10:24:13;11.48;;;10.15;;
83694;SDS011;73676;43.582;22.268;2024-01-10T10:26:38;11.68;;;10.30;;
83694;SDS011;73676;43.582;22.268;2024-01-10T10:29:06;14.23;;;11.00;;
83694;SDS011;73676;43.582;22.268;2024-01-10T10:31:31;18.38;;;14.65;;
83694;SDS011;73676;43.582;22.268;2024-01-10T10:33:57;11.77;;;10.30;;
83694;SDS011;73676;43.582;22.268;2024-01-10T10:36:24;12.77;;;11.40;;
83694;SDS011;73676;43.582;22.268;2024-01-10T10:38:49;14.40;;;11.10;;
83694;SDS011;73676;43.582;22.268;2024-01-10T10:41:15;14.02;;;10.20;;
83694;SDS011;73676;43.582;22.268;2024-01-10T10:43:40;12.68;;;10.80;;
83694;SDS011;73676;43.582;22.268;2024-01-10T10:46:07;12.93;;;11.13;;
83694;SDS011;73676;43.582;22.268;2024-01-10T10:48:34;14.20;;;11.17;;
83694;SDS011;73676;43.582;22.268;2024-01-10T10:51:04;12.68;;;10.23;;
83694;SDS011;73676;43.582;22.268;2024-01-10T10:53:33;12.98;;;9.20;;
83694;SDS011;73676;43.582;22.268;2024-01-10T10:55:59;14.60;;;12.23;;
83694;SDS011;73676;43.582;22.268;2024-01-10T10:58:25;25.50;;;18.27;;
83694;SDS011;73676;43.582;22.268;2024-01-10T11:00:52;15.43;;;11.90;;
83694;SDS011;73676;43.582;22.268;2024-01-10T11:03:17;31.73;;;21.30;;
83694;SDS011;73676;43.582;22.268;2024-01-10T11:05:43;17.17;;;13.60;;
83694;SDS011;73676;43.582;22.268;2024-01-10T11:08:11;16.00;;;13.10;;
83694;SDS011;73676;43.582;22.268;2024-01-10T11:10:39;15.18;;;12.02;;
83694;SDS011;73676;43.582;22.268;2024-01-10T11:23:44;10.50;;;9.40;;
83694;SDS011;73676;43.582;22.268;2024-01-10T11:26:10;10.95;;;9.45;;
83694;SDS011;73676;43.582;22.268;2024-01-10T11:28:36;15.40;;;11.90;;
83694;SDS011;73676;43.582;22.268;2024-01-10T11:31:02;12.30;;;10.48;;
83694;SDS011;73676;43.582;22.268;2024-01-10T11:33:32;12.82;;;10.40;;
83694;SDS011;73676;43.582;22.268;2024-01-10T11:36:08;10.85;;;8.57;;
83694;SDS011;73676;43.582;22.268;2024-01-10T11:38:38;10.70;;;9.02;;
83694;SDS011;73676;43.582;22.268;2024-01-10T11:41:03;11.02;;;9.30;;
83694;SDS011;73676;43.582;22.268;2024-01-10T11:43:29;10.63;;;9.52;;
83694;SDS011;73676;43.582;22.268;2024-01-10T11:45:55;42.47;;;33.05;;
83694;SDS011;73676;43.582;22.268;2024-01-10T11:48:31;17.50;;;14.70;;
83694;SDS011;73676;43.582;22.268;2024-01-10T11:50:59;11.68;;;10.48;;
83694;SDS011;73676;43.582;22.268;2024-01-10T11:53:41;11.75;;;9.98;;
83694;SDS011;73676;43.582;22.268;2024-01-10T11:56:11;13.18;;;10.77;;
83694;SDS011;73676;43.582;22.268;2024-01-10T12:01:21;65.57;;;42.20;;
83694;SDS011;73676;43.582;22.268;2024-01-10T12:03:47;14.98;;;12.63;;
83694;SDS011;73676;43.582;22.268;2024-01-10T12:06:13;9.93;;;8.88;;
83694;SDS011;73676;43.582;22.268;2024-01-10T12:08:39;17.15;;;13.05;;
83694;SDS011;73676;43.582;22.268;2024-01-10T12:11:04;23.20;;;17.13;;
83694;SDS011;73676;43.582;22.268;2024-01-10T12:13:30;11.90;;;10.18;;
83694;SDS011;73676;43.582;22.268;2024-01-10T12:15:57;10.00;;;8.82;;
83694;SDS011;73676;43.582;22.268;2024-01-10T12:18:23;16.92;;;15.27;;
83694;SDS011;73676;43.582;22.268;2024-01-10T12:20:48;61.13;;;45.50;;
83694;SDS011;73676;43.582;22.268;2024-01-10T12:23:13;36.15;;;30.98;;
83694;SDS011;73676;43.582;22.268;2024-01-10T12:25:38;18.45;;;15.52;;
83694;SDS011;73676;43.582;22.268;2024-01-10T12:28:04;15.75;;;12.88;;
83694;SDS011;73676;43.582;22.268;2024-01-10T12:30:30;16.92;;;13.23;;
83694;SDS011;73676;43.582;22.268;2024-01-10T12:32:55;10.55;;;9.45;;
83694;SDS011;73676;43.582;22.268;2024-01-10T12:35:23;11.95;;;10.48;;
83694;SDS011;73676;43.582;22.268;2024-01-10T12:37:55;23.63;;;18.85;;
83694;SDS011;73676;43.582;22.268;2024-01-10T12:40:20;17.17;;;14.77;;
83694;SDS011;73676;43.582;22.268;2024-01-10T12:42:46;20.05;;;15.60;;
83694;SDS011;73676;43.582;22.268;2024-01-10T12:45:22;12.85;;;9.95;;
83694;SDS011;73676;43.582;22.268;2024-01-10T12:47:48;8.65;;;7.78;;
83694;SDS011;73676;43.582;22.268;2024-01-10T12:50:13;12.35;;;9.80;;
83694;SDS011;73676;43.582;22.268;2024-01-10T12:52:39;15.68;;;12.40;;
83694;SDS011;73676;43.582;22.268;2024-01-10T12:55:06;18.27;;;14.68;;
83694;SDS011;73676;43.582;22.268;2024-01-10T12:57:31;12.85;;;11.48;;
83694;SDS011;73676;43.582;22.268;2024-01-10T12:59:56;13.90;;;12.40;;
83694;SDS011;73676;43.582;22.268;2024-01-10T13:02:22;9.98;;;8.98;;
83694;SDS011;73676;43.582;22.268;2024-01-10T13:04:47;9.55;;;8.38;;
83694;SDS011;73676;43.582;22.268;2024-01-10T13:07:12;9.63;;;8.63;;
83694;SDS011;73676;43.582;22.268;2024-01-10T13:09:37;11.77;;;9.82;;
83694;SDS011;73676;43.582;22.268;2024-01-10T13:12:03;10.43;;;8.82;;
83694;SDS011;73676;43.582;22.268;2024-01-10T13:14:28;18.10;;;15.30;;
83694;SDS011;73676;43.582;22.268;2024-01-10T13:16:57;13.05;;;10.27;;
83694;SDS011;73676;43.582;22.268;2024-01-10T13:19:22;11.82;;;9.75;;
83694;SDS011;73676;43.582;22.268;2024-01-10T13:21:47;18.73;;;16.70;;
83694;SDS011;73676;43.582;22.268;2024-01-10T13:24:12;25.73;;;20.00;;
83694;SDS011;73676;43.582;22.268;2024-01-10T13:26:38;18.92;;;14.43;;
83694;SDS011;73676;43.582;22.268;2024-01-10T13:29:03;21.05;;;16.80;;
83694;SDS011;73676;43.582;22.268;2024-01-10T13:31:29;13.45;;;11.20;;
83694;SDS011;73676;43.582;22.268;2024-01-10T13:33:54;11.07;;;8.85;;
83694;SDS011;73676;43.582;22.268;2024-01-10T13:36:20;10.13;;;8.60;;
83694;SDS011;73676;43.582;22.268;2024-01-10T13:38:45;10.45;;;7.85;;
83694;SDS011;73676;43.582;22.268;2024-01-10T13:41:11;22.50;;;15.90;;
83694;SDS011;73676;43.582;22.268;2024-01-10T13:43:36;10.73;;;8.95;;
83694;SDS011;73676;43.582;22.268;2024-01-10T13:46:01;14.43;;;10.85;;
83694;SDS011;73676;43.582;22.268;2024-01-10T13:48:28;14.48;;;9.77;;
83694;SDS011;73676;43.582;22.268;2024-01-10T13:50:53;10.60;;;9.35;;
83694;SDS011;73676;43.582;22.268;2024-01-10T13:53:18;17.02;;;12.27;;
83694;SDS011;73676;43.582;22.268;2024-01-10T13:55:44;13.32;;;10.02;;
83694;SDS011;73676;43.582;22.268;2024-01-10T13:58:11;10.05;;;7.90;;
83694;SDS011;73676;43.582;22.268;2024-01-10T14:00:37;10.35;;;8.00;;
83694;SDS011;73676;43.582;22.268;2024-01-10T14:03:03;11.00;;;7.68;;
83694;SDS011;73676;43.582;22.268;2024-01-10T14:05:29;14.48;;;9.60;;
83694;SDS011;73676;43.582;22.268;2024-01-10T14:07:54;14.20;;;10.85;;
83694;SDS011;73676;43.582;22.268;2024-01-10T14:10:20;16.05;;;10.50;;
83694;SDS011;73676;43.582;22.268;2024-01-10T14:12:46;30.27;;;15.48;;
83694;SDS011;73676;43.582;22.268;2024-01-10T14:15:12;23.10;;;13.73;;
83694;SDS011;73676;43.582;22.268;2024-01-10T14:17:37;20.05;;;14.27;;